createdAt,value
2023-01-23T00:01:30.283Z,8.15
2023-01-23T00:03:58.251Z,8.57
2023-01-23T00:06:25.903Z,8.43
2023-01-23T00:08:52.911Z,8.85
2023-01-23T00:11:22.525Z,7.72
2023-01-23T00:13:52.182Z,8.20
2023-01-23T00:16:25.483Z,9.27
2023-01-23T00:18:53.205Z,9.15
2023-01-23T00:21:23.346Z,8.30
2023-01-23T00:23:52.921Z,8.20
2023-01-23T00:26:22.977Z,8.77
2023-01-23T00:28:50.804Z,8.45
2023-01-23T00:31:26.885Z,9.25
2023-01-23T00:33:56.396Z,8.35
2023-01-23T00:36:24.345Z,9.40
2023-01-23T00:38:53.469Z,9.60
2023-01-23T00:41:20.337Z,9.15
2023-01-23T00:43:48.377Z,9.80
2023-01-23T00:46:15.310Z,9.05
2023-01-23T00:48:42.207Z,9.55
2023-01-23T00:51:09.180Z,9.32
2023-01-23T00:53:36.284Z,8.48
2023-01-23T00:56:05.811Z,8.27
2023-01-23T00:58:32.777Z,8.45
2023-01-23T01:00:59.696Z,8.32
2023-01-23T01:03:26.680Z,8.48
2023-01-23T01:05:53.658Z,8.50
2023-01-23T01:08:20.936Z,9.07
2023-01-23T01:10:47.860Z,9.10
2023-01-23T01:13:21.383Z,9.10
2023-01-23T01:15:50.385Z,9.45
2023-01-23T01:18:18.271Z,9.80
2023-01-23T01:20:45.393Z,10.02
2023-01-23T01:23:12.888Z,10.38
2023-01-23T01:25:42.258Z,10.00
2023-01-23T01:28:09.153Z,9.75
2023-01-23T01:30:37.129Z,10.55
2023-01-23T01:33:04.531Z,10.00
2023-01-23T01:35:32.276Z,10.23
2023-01-23T01:37:59.592Z,9.82
2023-01-23T01:40:35.353Z,8.65
2023-01-23T01:43:07.034Z,9.25
2023-01-23T01:46:04.787Z,9.23
2023-01-23T01:48:43.346Z,8.98
2023-01-23T01:51:17.005Z,8.77
2023-01-23T01:53:47.048Z,8.63
2023-01-23T01:56:15.428Z,9.10
2023-01-23T01:58:46.021Z,8.38
2023-01-23T02:01:13.590Z,9.00
2023-01-23T02:03:43.362Z,8.85
2023-01-23T02:06:10.360Z,9.13
2023-01-23T02:09:03.985Z,9.52
2023-01-23T02:11:31.094Z,9.40
2023-01-23T02:13:58.060Z,9.20
2023-01-23T02:16:32.874Z,9.65
2023-01-23T02:19:07.303Z,9.77
2023-01-23T02:21:36.779Z,9.23
2023-01-23T02:24:09.681Z,8.60
2023-01-23T02:26:41.144Z,9.05
2023-01-23T02:29:08.735Z,9.68
2023-01-23T02:31:37.606Z,9.73
2023-01-23T02:34:05.319Z,9.50
2023-01-23T02:36:34.810Z,9.93
2023-01-23T02:39:06.922Z,9.77
2023-01-23T02:41:42.669Z,10.10
2023-01-23T02:44:34.206Z,9.10
2023-01-23T02:47:05.038Z,10.73
2023-01-23T02:51:58.844Z,13.05
2023-01-23T02:54:26.191Z,14.02
2023-01-23T02:56:53.152Z,11.73
2023-01-23T02:59:38.486Z,11.82
2023-01-23T03:02:06.358Z,10.60
2023-01-23T03:04:33.383Z,11.52
2023-01-23T03:07:00.481Z,11.68
2023-01-23T03:09:28.124Z,10.70
2023-01-23T03:11:57.519Z,10.55
2023-01-23T03:14:25.787Z,11.20
2023-01-23T03:16:54.119Z,11.90
2023-01-23T03:19:24.507Z,10.80
2023-01-23T03:21:51.945Z,11.00
2023-01-23T03:24:20.012Z,10.45
2023-01-23T03:26:48.705Z,10.20
2023-01-23T03:29:43.277Z,10.38
2023-01-23T03:32:15.564Z,9.85
2023-01-23T03:34:43.290Z,10.02
2023-01-23T03:37:12.081Z,10.45
2023-01-23T03:39:57.421Z,9.65
2023-01-23T03:42:24.327Z,10.63
2023-01-23T03:44:52.834Z,9.65
2023-01-23T03:47:22.273Z,10.02
2023-01-23T03:49:49.195Z,9.23
2023-01-23T03:52:16.119Z,10.43
2023-01-23T03:54:43.106Z,10.52
2023-01-23T03:57:10.413Z,10.00
2023-01-23T03:59:37.407Z,10.88
2023-01-23T04:02:05.172Z,10.48
2023-01-23T04:04:35.754Z,10.43
2023-01-23T04:07:03.721Z,11.05
2023-01-23T04:09:30.690Z,10.35
2023-01-23T04:11:59.372Z,10.70
2023-01-23T04:14:27.920Z,10.68
2023-01-23T04:16:54.957Z,10.43
2023-01-23T04:19:22.029Z,10.95
2023-01-23T04:21:49.872Z,10.32
2023-01-23T04:24:17.743Z,10.18
2023-01-23T04:26:45.076Z,9.85
2023-01-23T04:29:12.566Z,10.10
2023-01-23T04:31:39.808Z,10.60
2023-01-23T04:34:06.765Z,10.05
2023-01-23T04:36:33.647Z,9.48
2023-01-23T04:39:00.640Z,10.27
2023-01-23T04:41:30.333Z,9.93
2023-01-23T04:44:18.670Z,9.18
2023-01-23T04:46:46.483Z,9.52
2023-01-23T04:49:13.554Z,9.50
2023-01-23T04:51:40.870Z,10.05
2023-01-23T04:54:07.756Z,10.18
2023-01-23T04:56:37.163Z,10.55
2023-01-23T04:59:04.237Z,9.43
2023-01-23T05:01:31.238Z,9.55
2023-01-23T05:03:58.287Z,9.90
2023-01-23T05:06:25.494Z,9.68
2023-01-23T05:08:57.085Z,10.48
2023-01-23T05:11:24.578Z,12.00
2023-01-23T05:13:51.541Z,13.82
2023-01-23T05:16:18.468Z,11.95
2023-01-23T05:18:45.350Z,10.30
2023-01-23T05:21:12.346Z,9.82
2023-01-23T05:23:41.417Z,10.27
2023-01-23T05:26:08.445Z,9.73
2023-01-23T05:28:35.423Z,10.38
2023-01-23T05:31:02.446Z,11.95
2023-01-23T05:33:29.492Z,10.13
2023-01-23T05:36:00.531Z,9.43
2023-01-23T05:38:27.583Z,10.23
2023-01-23T05:40:56.717Z,10.05
2023-01-23T05:43:23.608Z,10.80
2023-01-23T05:45:50.511Z,10.52
2023-01-23T05:48:19.773Z,10.95
2023-01-23T05:50:46.734Z,12.45
2023-01-23T05:53:13.706Z,13.10
2023-01-23T05:55:40.745Z,11.43
2023-01-23T05:58:07.699Z,12.38
2023-01-23T06:00:35.195Z,12.25
2023-01-23T06:03:02.160Z,13.55
2023-01-23T06:05:29.286Z,13.90
2023-01-23T06:07:56.164Z,14.75
2023-01-23T06:10:23.091Z,15.40
2023-01-23T06:12:50.096Z,14.75
2023-01-23T06:15:17.120Z,16.88
2023-01-23T06:17:44.065Z,18.23
2023-01-23T06:20:12.638Z,17.23
2023-01-23T06:22:39.538Z,15.63
2023-01-23T06:25:07.013Z,16.27
2023-01-23T06:27:33.961Z,17.42
2023-01-23T06:30:00.836Z,18.23
2023-01-23T06:32:27.800Z,18.20
2023-01-23T06:34:57.298Z,17.30
2023-01-23T06:37:24.199Z,18.92
2023-01-23T06:39:53.363Z,17.65
2023-01-23T06:42:22.724Z,18.20
2023-01-23T06:44:49.714Z,18.27
2023-01-23T06:47:16.790Z,18.42
2023-01-23T06:49:43.767Z,17.63
2023-01-23T06:52:13.169Z,17.92
2023-01-23T06:54:40.053Z,18.33
2023-01-23T06:57:06.960Z,18.90
2023-01-23T06:59:33.907Z,17.42
2023-01-23T07:02:03.095Z,17.70
2023-01-23T07:04:30.001Z,17.52
2023-01-23T07:06:56.973Z,17.85
2023-01-23T07:09:23.879Z,17.52
2023-01-23T07:11:55.771Z,16.77
2023-01-23T07:14:22.955Z,17.75
2023-01-23T07:16:49.872Z,17.13
2023-01-23T07:19:16.777Z,16.60
2023-01-23T07:21:43.662Z,16.58
2023-01-23T07:24:18.217Z,16.98
2023-01-23T07:26:45.145Z,16.92
2023-01-23T07:29:14.383Z,18.42
2023-01-23T07:31:41.294Z,18.20
2023-01-23T07:34:08.188Z,18.42
2023-01-23T07:36:35.069Z,17.92
2023-01-23T07:39:04.242Z,18.48
2023-01-23T07:41:31.199Z,17.13
2023-01-23T07:43:58.067Z,19.90
2023-01-23T07:46:26.936Z,19.10
2023-01-23T07:48:53.933Z,18.13
2023-01-23T07:51:23.071Z,19.23
2023-01-23T07:53:50.009Z,17.60
2023-01-23T07:56:19.360Z,16.75
2023-01-23T07:58:50.610Z,16.40
2023-01-23T08:01:20.033Z,16.27
2023-01-23T08:03:49.416Z,15.90
2023-01-23T08:06:16.357Z,15.60
2023-01-23T08:08:43.285Z,16.20
2023-01-23T08:11:12.711Z,17.17
2023-01-23T08:13:39.643Z,16.85
2023-01-23T08:16:07.868Z,17.05
2023-01-23T08:18:35.227Z,17.50
2023-01-23T08:21:03.469Z,17.15
2023-01-23T08:23:36.254Z,18.25
2023-01-23T08:26:08.755Z,17.98
2023-01-23T08:28:38.106Z,20.55
2023-01-23T08:31:07.979Z,17.80
2023-01-23T08:33:37.847Z,18.10
2023-01-23T08:36:06.701Z,17.95
2023-01-23T08:38:33.843Z,18.85
2023-01-23T08:41:02.329Z,17.90
2023-01-23T08:43:35.093Z,17.73
2023-01-23T08:46:02.196Z,18.85
2023-01-23T08:48:29.241Z,19.90
2023-01-23T08:51:03.627Z,22.15
2023-01-23T08:53:31.302Z,20.83
2023-01-23T08:56:07.342Z,21.05
2023-01-23T08:58:34.864Z,21.65
2023-01-23T09:01:02.024Z,22.55
2023-01-23T09:03:31.240Z,22.42
2023-01-23T09:06:01.958Z,23.13
2023-01-23T09:08:31.095Z,25.40
2023-01-23T09:11:10.089Z,24.65
2023-01-23T09:13:39.660Z,22.77
2023-01-23T09:16:09.961Z,22.02
2023-01-23T09:18:39.258Z,22.60
2023-01-23T09:21:11.534Z,21.67
2023-01-23T09:23:38.672Z,20.23
2023-01-23T09:26:07.510Z,19.27
2023-01-23T09:28:36.118Z,20.02
2023-01-23T09:31:07.404Z,20.75
2023-01-23T09:33:35.609Z,20.23
2023-01-23T09:36:03.937Z,21.08
2023-01-23T09:38:30.864Z,21.88
2023-01-23T09:40:59.854Z,20.08
2023-01-23T09:43:32.850Z,20.00
2023-01-23T09:46:12.987Z,21.70
2023-01-23T09:48:45.602Z,20.88
2023-01-23T09:51:21.023Z,21.05
2023-01-23T09:53:48.292Z,21.40
2023-01-23T09:56:25.072Z,20.58
2023-01-23T09:58:59.865Z,21.42
2023-01-23T10:01:30.248Z,25.13
2023-01-23T10:04:00.542Z,24.00
2023-01-23T10:06:33.955Z,22.30
2023-01-23T10:09:36.197Z,19.30
2023-01-23T10:12:32.493Z,19.27
2023-01-23T10:15:18.917Z,17.20
2023-01-23T10:18:00.575Z,14.82
2023-01-23T10:20:42.619Z,15.52
2023-01-23T10:23:45.793Z,15.52
2023-01-23T10:26:26.643Z,15.50
2023-01-23T10:29:03.369Z,16.23
2023-01-23T10:31:38.796Z,15.13
2023-01-23T10:34:11.409Z,16.83
2023-01-23T10:37:15.630Z,15.70
2023-01-23T10:39:59.478Z,14.93
2023-01-23T10:42:27.968Z,14.25
2023-01-23T10:44:55.116Z,14.20
2023-01-23T10:47:37.133Z,12.77
2023-01-23T10:50:06.231Z,12.77
2023-01-23T10:52:33.120Z,12.82
2023-01-23T10:55:03.923Z,14.70
2023-01-23T10:57:44.810Z,18.60
2023-01-23T11:00:47.169Z,17.77
2023-01-23T11:03:26.074Z,17.05
2023-01-23T11:06:20.827Z,14.95
2023-01-23T11:09:02.787Z,13.63
2023-01-23T11:11:32.199Z,11.65
2023-01-23T11:14:16.884Z,11.52
2023-01-23T11:16:44.173Z,11.35
2023-01-23T11:19:15.697Z,10.52
2023-01-23T11:21:51.359Z,9.68
2023-01-23T11:24:41.216Z,9.98
2023-01-23T11:27:30.093Z,9.43
2023-01-23T11:30:09.279Z,11.02
2023-01-23T11:32:47.611Z,11.23
2023-01-23T11:35:20.952Z,8.85
2023-01-23T11:37:48.003Z,8.60
2023-01-23T11:40:19.612Z,8.63
2023-01-23T11:42:47.571Z,7.85
2023-01-23T11:45:26.611Z,9.18
2023-01-23T11:48:11.532Z,9.55
2023-01-23T11:51:07.287Z,8.93
2023-01-23T11:53:50.976Z,9.20
2023-01-23T11:56:52.952Z,7.63
2023-01-23T11:59:43.833Z,8.15
2023-01-23T12:02:31.404Z,8.25
2023-01-23T12:05:32.497Z,7.57
2023-01-23T12:08:02.243Z,7.55
2023-01-23T12:11:16.446Z,8.43
2023-01-23T12:13:56.493Z,12.07
2023-01-23T12:16:56.057Z,13.80
2023-01-23T12:19:34.629Z,14.93
2023-01-23T12:22:16.475Z,15.65
2023-01-23T12:25:25.867Z,12.98
2023-01-23T12:28:01.897Z,10.20
2023-01-23T12:30:55.571Z,10.75
2023-01-23T12:33:53.292Z,10.68
2023-01-23T12:37:08.516Z,8.82
2023-01-23T12:39:56.064Z,8.82
2023-01-23T12:42:38.150Z,7.60
2023-01-23T12:45:10.807Z,6.55
2023-01-23T12:48:01.053Z,5.38
2023-01-23T12:50:43.642Z,5.35
2023-01-23T12:53:16.106Z,6.00
2023-01-23T12:55:58.330Z,6.18
2023-01-23T12:58:29.362Z,6.20
2023-01-23T13:01:38.438Z,6.03
2023-01-23T13:04:36.091Z,6.35
2023-01-23T13:07:09.011Z,5.95
2023-01-23T13:10:13.693Z,6.57
2023-01-23T13:12:44.045Z,6.13
2023-01-23T13:15:19.025Z,6.28
2023-01-23T13:17:58.178Z,5.05
2023-01-23T13:20:50.877Z,5.18
2023-01-23T13:23:37.879Z,5.15
2023-01-23T13:26:16.885Z,5.35
2023-01-23T13:28:55.271Z,6.32
2023-01-23T13:31:36.702Z,5.55
2023-01-23T13:34:18.058Z,5.65
2023-01-23T13:36:48.331Z,5.30
2023-01-23T13:39:18.023Z,5.90
2023-01-23T13:41:48.079Z,5.38
2023-01-23T13:44:41.781Z,5.53
2023-01-23T14:22:20.032Z,4.82
2023-01-23T14:24:48.146Z,4.53
2023-01-23T14:27:51.268Z,4.40
2023-01-23T14:30:24.809Z,3.85
2023-01-23T14:32:51.809Z,4.50
2023-01-23T14:35:30.051Z,4.63
2023-01-23T14:38:04.925Z,4.85
2023-01-23T14:40:43.439Z,4.53
2023-01-23T14:43:26.852Z,4.18
2023-01-23T14:46:06.494Z,4.30
2023-01-23T14:48:38.942Z,4.60
2023-01-23T14:51:17.974Z,4.90
2023-01-23T14:54:02.040Z,4.50
2023-01-23T14:56:36.947Z,4.63
2023-01-23T14:59:15.877Z,4.72
2023-01-23T15:01:42.964Z,5.20
2023-01-23T15:04:28.358Z,5.20
2023-01-23T15:07:02.640Z,6.30
2023-01-23T15:09:37.088Z,6.75
2023-01-23T15:12:08.459Z,5.38
2023-01-23T15:14:40.518Z,5.60
2023-01-23T15:17:27.725Z,4.97
2023-01-23T15:19:59.544Z,4.85
2023-01-23T15:22:28.649Z,5.30
2023-01-23T15:24:56.072Z,5.10
2023-01-23T15:27:27.647Z,5.78
2023-01-23T15:30:33.100Z,5.30
2023-01-23T15:33:07.410Z,5.53
2023-01-23T15:35:35.775Z,5.22
2023-01-23T15:38:08.699Z,4.68
2023-01-23T15:40:38.306Z,4.22
2023-01-23T15:43:19.164Z,5.35
2023-01-23T15:45:46.932Z,5.18
2023-01-23T15:48:13.904Z,4.85
2023-01-23T15:50:41.321Z,3.95
2023-01-23T15:53:15.069Z,4.40
2023-01-23T15:55:42.035Z,5.70
2023-01-23T15:58:17.343Z,6.68
2023-01-23T16:00:46.666Z,5.15
2023-01-23T16:03:14.966Z,5.40
2023-01-23T16:05:42.302Z,4.25
2023-01-23T16:08:20.292Z,3.50
2023-01-23T16:10:47.495Z,5.13
2023-01-23T16:13:14.711Z,5.10
2023-01-23T16:15:42.107Z,4.50
2023-01-23T16:18:10.177Z,4.70
2023-01-23T16:20:39.634Z,4.75
2023-01-23T16:23:29.250Z,2.97
2023-01-23T16:25:58.615Z,3.17
2023-01-23T16:28:29.506Z,3.30
2023-01-23T16:30:56.560Z,3.15
2023-01-23T16:33:24.536Z,3.40
2023-01-23T16:35:52.033Z,3.67
2023-01-23T16:38:25.097Z,3.30
2023-01-23T16:40:53.531Z,3.05
2023-01-23T16:43:21.767Z,3.45
2023-01-23T16:45:49.130Z,3.55
2023-01-23T16:48:26.345Z,3.25
2023-01-23T16:50:58.996Z,3.53
2023-01-23T16:53:30.676Z,4.13
2023-01-23T16:56:00.515Z,3.83
2023-01-23T16:58:32.565Z,4.28
2023-01-23T17:01:03.780Z,3.50
2023-01-23T17:03:34.743Z,3.45
2023-01-23T17:08:28.671Z,4.05
2023-01-23T17:11:03.317Z,3.60
2023-01-23T17:13:33.785Z,3.50
2023-01-23T17:16:02.689Z,3.85
2023-01-23T17:18:32.891Z,3.75
2023-01-23T17:21:00.354Z,2.97
2023-01-23T17:23:27.547Z,3.05
2023-01-23T17:26:00.764Z,3.28
2023-01-23T17:28:28.897Z,3.30
2023-01-23T17:30:58.114Z,3.53
2023-01-23T17:33:27.740Z,4.13
2023-01-23T17:35:56.180Z,3.83
2023-01-23T17:38:31.088Z,4.28
2023-01-23T17:40:58.052Z,3.80
2023-01-23T17:43:24.968Z,3.50
2023-01-23T17:45:52.350Z,4.32
2023-01-23T17:48:29.148Z,4.03
2023-01-23T17:50:56.545Z,4.07
2023-01-23T17:53:24.083Z,3.30
2023-01-23T17:55:52.888Z,3.70
2023-01-23T17:58:20.645Z,3.72
2023-01-23T18:00:50.889Z,4.00
2023-01-23T18:03:21.821Z,4.07
2023-01-23T18:05:51.009Z,3.40
2023-01-23T18:08:20.326Z,2.75
2023-01-23T18:10:51.375Z,2.60
2023-01-23T18:13:53.433Z,3.15
2023-01-23T18:16:27.207Z,3.30
2023-01-23T18:19:17.114Z,2.90
2023-01-23T18:21:46.007Z,2.90
2023-01-23T18:24:38.552Z,2.90
2023-01-23T18:27:09.940Z,2.90
2023-01-23T18:29:42.765Z,3.08
2023-01-23T18:32:42.058Z,3.58
2023-01-23T18:35:46.142Z,2.92
2023-01-23T18:38:31.404Z,3.65
2023-01-23T18:41:23.865Z,3.63
2023-01-23T18:44:06.209Z,3.85
2023-01-23T18:46:33.687Z,3.30
2023-01-23T18:49:00.898Z,3.60
2023-01-23T18:52:00.517Z,4.00
2023-01-23T18:54:37.930Z,3.03
2023-01-23T18:57:07.728Z,3.22
2023-01-23T19:00:15.104Z,3.03
2023-01-23T19:02:53.045Z,3.80
2023-01-23T19:05:33.275Z,3.53
2023-01-23T19:08:05.091Z,4.30
2023-01-23T19:10:48.892Z,4.03
2023-01-23T19:13:30.019Z,12.98
2023-01-23T19:18:39.370Z,3.13
2023-01-23T19:21:14.037Z,3.33
2023-01-23T19:23:56.999Z,3.50
2023-01-23T19:26:27.734Z,3.40
2023-01-23T19:28:56.298Z,3.80
2023-01-23T19:31:27.056Z,3.60
2023-01-23T19:33:57.378Z,3.53
2023-01-23T19:36:25.063Z,2.90
2023-01-23T19:38:53.241Z,3.10
2023-01-23T19:41:26.888Z,2.60
2023-01-23T19:43:55.627Z,3.10
2023-01-23T19:46:27.045Z,3.25
2023-01-23T19:48:55.692Z,3.78
2023-01-23T19:51:24.244Z,4.55
2023-01-23T19:53:51.193Z,2.92
2023-01-23T19:56:18.558Z,3.58
2023-01-23T19:58:46.419Z,3.45
2023-01-23T20:01:35.797Z,4.05
2023-01-23T20:04:04.233Z,3.78
2023-01-23T20:06:33.179Z,4.03
2023-01-23T20:09:00.717Z,3.92
2023-01-23T20:11:27.697Z,3.58
2023-01-23T20:13:54.753Z,3.78
2023-01-23T20:16:25.164Z,3.70
2023-01-23T20:18:54.210Z,4.07
2023-01-23T20:21:25.236Z,3.45
2023-01-23T20:23:52.414Z,3.80
2023-01-23T20:26:23.437Z,3.90
2023-01-23T20:28:53.468Z,4.00
2023-01-23T20:31:20.905Z,3.33
2023-01-23T20:33:48.090Z,3.80
2023-01-23T20:36:16.051Z,4.68
2023-01-23T20:38:43.179Z,4.38
2023-01-23T20:41:17.476Z,4.00
2023-01-23T20:43:44.849Z,3.88
2023-01-23T20:46:14.220Z,3.28
2023-01-23T20:48:46.421Z,3.88
2023-01-23T20:51:15.680Z,5.03
2023-01-23T20:53:43.113Z,3.78
2023-01-23T20:56:19.987Z,4.25
2023-01-23T20:59:07.712Z,3.40
2023-01-23T21:01:55.768Z,3.88
2023-01-23T21:04:25.241Z,4.18
2023-01-23T21:06:52.572Z,3.55
2023-01-23T21:09:19.575Z,3.60
2023-01-23T21:11:47.377Z,3.60
2023-01-23T21:14:14.351Z,3.28
2023-01-23T21:16:41.266Z,3.60
2023-01-23T21:19:08.206Z,3.60
2023-01-23T21:21:35.630Z,3.35
2023-01-23T21:24:02.661Z,9.77
2023-01-23T21:26:30.118Z,4.30
2023-01-23T21:28:58.550Z,3.42
2023-01-23T21:31:33.263Z,2.90
2023-01-23T21:34:01.980Z,3.70
2023-01-23T21:36:29.252Z,3.42
2023-01-23T21:38:56.643Z,3.63
2023-01-23T21:41:23.993Z,3.60
2023-01-23T21:43:50.903Z,3.45
2023-01-23T21:46:18.225Z,3.70
2023-01-23T21:48:45.213Z,3.33
2023-01-23T21:51:13.619Z,3.47
2023-01-23T21:53:42.653Z,3.33
2023-01-23T21:56:10.398Z,4.28
2023-01-23T21:58:37.726Z,4.82
2023-01-23T22:01:30.562Z,4.40
2023-01-23T22:04:05.329Z,4.43
2023-01-23T22:06:33.547Z,4.47
2023-01-23T22:09:00.732Z,4.88
2023-01-23T22:11:28.115Z,4.40
2023-01-23T22:13:55.646Z,4.38
2023-01-23T22:16:32.092Z,4.90
2023-01-23T22:19:07.335Z,4.60
2023-01-23T22:21:34.413Z,5.03
2023-01-23T22:24:01.515Z,4.15
2023-01-23T22:26:28.588Z,3.03
2023-01-23T22:28:55.593Z,2.67
2023-01-23T22:31:22.576Z,2.00
2023-01-23T22:33:49.634Z,1.92
2023-01-23T22:36:19.639Z,2.20
2023-01-23T22:38:53.999Z,2.17
2023-01-23T22:41:21.313Z,2.15
2023-01-23T22:43:56.848Z,2.10
2023-01-23T22:46:24.127Z,2.13
2023-01-23T22:48:51.612Z,1.88
2023-01-23T22:51:26.071Z,1.95
2023-01-23T22:53:58.268Z,1.63
2023-01-23T22:56:26.462Z,2.30
2023-01-23T22:58:55.044Z,2.30
2023-01-23T23:01:28.862Z,2.50
2023-01-23T23:04:00.071Z,2.65
2023-01-23T23:06:27.499Z,3.08
2023-01-23T23:08:54.898Z,2.38
2023-01-23T23:11:22.973Z,2.90
2023-01-23T23:13:50.355Z,2.10
2023-01-23T23:16:19.945Z,2.45
2023-01-23T23:18:48.655Z,2.10
2023-01-23T23:21:18.112Z,2.28
2023-01-23T23:23:45.485Z,2.50
2023-01-23T23:26:13.254Z,3.15
2023-01-23T23:28:40.582Z,3.00
2023-01-23T23:31:09.343Z,3.08
2023-01-23T23:33:38.970Z,3.90
2023-01-23T23:36:06.826Z,4.30
2023-01-23T23:38:33.784Z,4.35
2023-01-23T23:41:12.010Z,3.97
2023-01-23T23:43:39.035Z,4.10
2023-01-23T23:46:07.901Z,4.13
2023-01-23T23:48:36.511Z,4.07
2023-01-23T23:51:05.997Z,4.72
2023-01-23T23:53:33.674Z,3.85
2023-01-23T23:56:00.618Z,3.88
2023-01-23T23:58:27.587Z,3.80
